Latest Weather Observations for Albury

IDV60801

Issued at 6:02 am EDT Tuesday 17 January 2017 (issued every 30 minutes, with the page automatically refreshed every 10 minutes)

About weather observations | Map of weather stations | Latest weather observations for VIC | Other Formats
Station Details ID: 072160 Name: ALBURY AIRPORT AWS Lat: -36.07 Lon: 146.95 Height: 163.5 m
Data from the previous 72 hours. | See also: Recent months at Albury
Date/Time
EDT
Temp
°C
App
Temp
°C
Dew
Point
°C
Rel
Hum
%
Delta-T
°C
Wind Press
QNH
hPa
Press
MSL
hPa
Rain since
9am
mm
Dir  Spd
km/h
Gust
km/h
Spd
kts
Gust
kts
17/06:00am 16.8 17.3 12.9 78 2.2 WSW 2 0 1 0 1011.8 1011.0 -
17/05:30am 17.2 16.5 13.1 77 2.3 NW 9 13 5 7 1011.8 1011.0 0.0
17/05:00am 17.1 16.8 12.6 75 2.5 N 6 9 3 5 1011.6 1010.8 0.0
17/04:30am 17.4 18.4 13.1 76 2.4 CALM 0 7 0 4 1011.5 1010.7 0.0
17/04:00am 17.9 18.9 13.2 74 2.7 CALM 0 0 0 0 1011.2 1010.4 0.0
17/03:30am 18.2 18.1 13.3 73 2.8 ESE 6 9 3 5 1011.3 1010.5 0.0
17/03:00am 17.7 18.4 13.4 76 2.4 SSE 2 6 1 3 1011.4 1010.6 0.0
17/02:30am 18.4 19.4 13.1 71 3.0 CALM 0 0 0 0 1011.4 1010.6 0.0
17/02:00am 19.2 19.8 13.2 68 3.4 W 2 6 1 3 1011.7 1010.9 0.0
17/01:30am 19.7 19.4 13.2 66 3.7 NW 7 9 4 5 1012.0 1011.2 0.0
17/01:00am 20.5 21.5 13.2 63 4.2 CALM 0 0 0 0 1012.2 1011.4 0.0
17/12:30am 22.0 23.0 13.1 57 5.1 CALM 0 0 0 0 1012.3 1011.5 0.0
17/12:00am 22.1 22.7 13.2 57 5.2 S 2 7 1 4 1012.4 1011.6 0.0
 
Date/Time
EDT
Temp
°C
App
Temp
°C
Dew
Point
°C
Rel
Hum
%
Delta-T
°C
Wind Press
QNH
hPa
Press
MSL
hPa
Rain since
9am
mm
Dir  Spd
km/h
Gust
km/h
Spd
kts
Gust
kts
16/11:30pm 22.8 23.6 12.7 53 5.8 CALM 0 0 0 0 1012.4 1011.6 0.0
16/11:00pm 24.1 23.2 12.7 49 6.6 SE 9 13 5 7 1012.3 1011.5 0.0
16/10:30pm 23.2 23.8 11.9 49 6.4 CALM 0 2 0 1 1012.1 1011.3 0.0
16/10:00pm 24.2 23.7 12.2 47 6.9 NW 6 6 3 3 1012.0 1011.2 0.0
16/09:30pm 25.1 24.5 11.6 42 7.7 N 6 9 3 5 1011.8 1011.0 0.0
16/09:00pm 26.8 26.9 10.1 35 9.4 CALM 0 0 0 0 1011.7 1010.9 0.0
16/08:30pm 29.2 29.0 10.3 31 10.8 SSE 2 6 1 3 1011.6 1010.8 0.0
16/08:00pm 31.7 29.9 9.3 25 12.7 SE 9 13 5 7 1011.5 1010.7 0.0
16/07:30pm 32.6 30.2 8.8 23 13.5 ESE 11 13 6 7 1011.4 1010.6 0.0
16/07:00pm 33.0 29.8 8.5 22 13.8 ESE 15 19 8 10 1011.2 1010.4 0.0
16/06:30pm 33.4 30.3 8.8 22 14.0 SE 15 20 8 11 1011.1 1010.3 0.0
16/06:00pm 33.8 30.0 9.1 22 14.1 SE 19 22 10 12 1011.0 1010.2 0.0
16/05:30pm 34.8 33.0 7.8 19 15.2 SSE 7 17 4 9 1011.2 1010.4 0.0
16/05:00pm 33.9 30.7 8.5 21 14.4 S 15 20 8 11 1011.5 1010.7 0.0
16/04:30pm 33.3 31.1 9.4 23 13.7 SE 11 17 6 9 1011.7 1010.9 0.0
16/04:00pm 32.9 31.3 11.4 27 12.7 SE 11 17 6 9 1012.0 1011.2 0.0
16/03:30pm 32.8 31.0 10.8 26 12.8 ESE 11 15 6 8 1012.3 1011.5 0.0
16/03:00pm 32.7 31.2 11.8 28 12.4 ESE 11 17 6 9 1012.7 1011.9 0.0
16/02:30pm 32.0 30.3 11.2 28 12.2 SE 11 20 6 11 1013.0 1012.2 0.0
16/02:00pm 31.4 30.4 12.2 30 11.4 SE 9 17 5 9 1013.5 1012.7 0.0
16/01:30pm 31.0 29.3 12.4 32 11.0 SSE 13 20 7 11 1014.0 1013.2 0.0
16/01:00pm 30.3 29.1 12.7 34 10.5 ESE 11 20 6 11 1014.4 1013.6 0.0
16/12:30pm 29.4 27.9 13.2 37 9.7 SSE 13 19 7 10 1014.8 1014.0 0.0
16/12:00pm 29.0 28.8 14.8 42 8.7 SE 9 15 5 8 1015.0 1014.2 0.0
16/11:30am 27.4 27.2 13.7 43 8.2 SSE 7 13 4 7 1015.4 1014.7 0.0
16/11:00am 26.4 26.3 13.9 46 7.5 S 7 13 4 7 1015.9 1015.1 0.0
16/10:30am 25.9 26.1 14.1 48 7.0 ESE 6 13 3 7 1016.2 1015.4 0.0
16/10:00am 23.6 22.9 13.2 52 6.1 SE 9 11 5 6 1016.4 1015.6 0.0
16/09:30am 22.3 21.7 13.6 58 5.1 SE 9 13 5 7 1016.6 1015.8 0.0
16/09:00am 20.9 20.6 13.4 62 4.3 ESE 7 11 4 6 1016.7 1015.9 0.0
16/08:30am 19.9 19.7 13.1 65 3.9 ESE 6 7 3 4 1016.6 1015.8 0.0
16/08:00am 18.4 17.8 12.2 67 3.5 SE 7 9 4 5 1016.6 1015.8 0.0
16/07:30am 17.0 16.4 11.7 71 2.9 SE 6 7 3 4 1016.3 1015.5 0.0
16/07:00am 14.8 15.2 11.2 79 1.9 CALM 0 0 0 0 1015.8 1015.0 0.0
16/06:30am 13.4 13.6 10.4 82 1.6 CALM 0 0 0 0 1015.3 1014.6 0.0
16/06:00am 13.5 13.7 10.7 83 1.5 CALM 0 0 0 0 1014.9 1014.1 0.0
16/05:30am 13.7 13.8 10.1 79 1.9 CALM 0 0 0 0 1014.7 1013.9 0.0
16/05:00am 14.2 13.9 10.2 77 2.1 ENE 2 7 1 4 1014.4 1013.6 0.0
16/04:30am 14.4 14.0 9.8 74 2.4 W 2 6 1 3 1013.9 1013.1 0.0
16/04:00am 14.5 13.4 9.9 74 2.4 N 6 7 3 4 1013.6 1012.8 0.0
16/03:30am 15.0 14.7 10.0 72 2.6 NW 2 7 1 4 1013.7 1012.9 0.0
16/03:00am 16.6 16.8 10.7 68 3.2 CALM 0 0 0 0 1013.7 1012.9 0.0
16/02:30am 16.6 16.1 10.9 69 3.1 ENE 4 7 2 4 1013.5 1012.7 0.0
16/02:00am 16.7 16.1 10.5 67 3.3 SSE 4 9 2 5 1013.6 1012.8 0.0
16/01:30am 16.9 17.0 10.1 64 3.6 CALM 0 0 0 0 1013.6 1012.8 0.0
16/01:00am 17.1 16.4 10.0 63 3.8 E 4 6 2 3 1013.7 1012.9 0.0
16/12:30am 17.3 16.2 10.0 62 3.9 NE 6 6 3 3 1013.9 1013.1 0.0
16/12:00am 18.4 17.7 10.0 58 4.5 N 4 7 2 4 1013.9 1013.1 0.0
 
Date/Time
EDT
Temp
°C
App
Temp
°C
Dew
Point
°C
Rel
Hum
%
Delta-T
°C
Wind Press
QNH
hPa
Press
MSL
hPa
Rain since
9am
mm
Dir  Spd
km/h
Gust
km/h
Spd
kts
Gust
kts
15/11:33pm 19.0 17.5 8.6 51 5.4 S 6 7 3 4 1013.8 1013.0 0.0
15/11:30pm 18.7 17.8 9.2 54 5.0 SSE 4 7 2 4 1013.8 1013.0 0.0
15/11:14pm 19.5 19.2 8.5 49 5.8 CALM 0 0 0 0 1013.8 1013.0 0.0
15/11:00pm 19.6 19.2 8.3 48 5.9 CALM 0 0 0 0 1013.8 1013.0 0.0
15/10:30pm 20.8 20.2 8.8 46 6.4 ESE 2 9 1 5 1013.8 1013.0 0.0
15/10:00pm 22.3 20.5 8.1 40 7.5 NNE 7 7 4 4 1013.7 1012.9 0.0
15/09:30pm 22.5 20.4 6.7 36 8.2 WSW 7 9 4 5 1013.6 1012.8 0.0
15/09:00pm 25.8 23.1 5.4 27 10.5 WSW 9 9 5 5 1013.4 1012.6 0.0
15/08:30pm 26.3 23.3 4.1 24 11.2 WSW 9 13 5 7 1013.4 1012.6 0.0
15/08:00pm 28.1 24.0 4.4 22 12.2 WSW 15 20 8 11 1013.0 1012.2 0.0
15/07:30pm 29.7 25.8 3.6 19 13.3 W 13 20 7 11 1012.7 1011.9 0.0
15/07:00pm 30.3 26.0 3.4 18 13.7 W 15 20 8 11 1012.6 1011.8 0.0
15/06:30pm 30.7 26.0 2.9 17 14.1 W 17 22 9 12 1012.5 1011.7 0.0
15/06:00pm 31.1 26.6 4.0 18 14.1 W 17 22 9 12 1012.5 1011.7 0.0
15/05:30pm 31.5 27.5 6.5 21 13.5 NW 17 24 9 13 1012.5 1011.7 0.0
15/05:00pm 30.8 27.8 6.0 21 13.3 W 11 20 6 11 1012.8 1012.0 0.0
15/04:30pm 30.3 28.2 8.1 25 12.3 NW 9 19 5 10 1013.1 1012.3 0.0
15/04:00pm 30.5 28.5 8.8 26 12.1 SE 9 20 5 11 1013.5 1012.7 0.0
15/03:30pm 29.6 26.8 5.0 21 12.9 NW 9 19 5 10 1013.7 1012.9 0.0
15/03:00pm 28.5 25.2 6.6 25 11.7 SW 13 19 7 10 1014.2 1013.4 0.0
15/02:30pm 28.1 25.9 7.9 28 11.0 SW 9 19 5 10 1014.5 1013.7 0.0
15/02:00pm 27.9 26.2 9.7 32 10.2 WSW 9 19 5 10 1014.8 1014.0 0.0
15/01:30pm 26.9 24.5 6.9 28 10.6 WNW 9 17 5 9 1015.3 1014.6 0.0
15/01:00pm 26.0 23.7 7.6 31 9.8 SSW 9 13 5 7 1015.6 1014.9 0.0
15/12:30pm 25.6 23.7 7.7 32 9.6 NE 7 11 4 6 1015.9 1015.1 0.0
15/12:00pm 24.0 22.0 8.8 38 8.2 SSE 9 13 5 7 1016.1 1015.3 0.0
15/11:30am 23.7 22.8 11.4 46 7.0 NE 7 11 4 6 1016.2 1015.4 0.0
15/11:00am 23.0 21.5 10.4 45 7.0 E 9 17 5 9 1016.2 1015.4 0.0
15/10:30am 22.2 20.6 11.6 51 6.0 SE 11 17 6 9 1016.6 1015.8 0.0
15/10:00am 20.9 18.5 11.5 55 5.2 SSE 15 20 8 11 1016.4 1015.6 0.0
15/09:30am 18.8 17.3 10.4 58 4.5 S 9 15 5 8 1016.5 1015.7 0.0
15/09:00am 18.0 15.7 10.6 62 4.0 SSE 13 19 7 10 1016.6 1015.8 0.0
15/08:30am 16.4 14.6 10.7 69 3.1 SSE 11 17 6 9 1016.6 1015.8 0.0
15/08:00am 15.0 12.7 10.6 75 2.3 S 13 17 7 9 1016.4 1015.6 0.0
15/07:30am 14.1 12.2 10.5 79 1.9 S 11 15 6 8 1016.0 1015.2 0.0
15/07:00am 13.3 11.8 10.5 83 1.5 S 9 13 5 7 1015.4 1014.7 0.0
15/06:30am 12.2 10.9 9.9 86 1.2 S 7 11 4 6 1015.1 1014.4 0.0
15/06:00am 11.6 10.4 9.7 88 1.0 WSW 6 11 3 6 1014.8 1014.0 0.0
15/05:30am 12.2 10.9 9.9 86 1.2 S 7 11 4 6 1014.6 1013.8 0.0
15/05:00am 12.6 12.8 10.5 87 1.1 CALM 0 0 0 0 1014.2 1013.4 0.0
15/04:30am 12.4 11.1 9.8 84 1.3 E 7 9 4 5 1014.0 1013.2 0.0
15/04:00am 13.1 13.2 10.3 83 1.5 CALM 0 0 0 0 1013.8 1013.0 0.0
15/03:30am 13.1 12.0 9.9 81 1.7 SSW 6 7 3 4 1013.6 1012.8 0.0
15/03:00am 14.6 13.8 9.8 73 2.5 SW 4 7 2 4 1013.6 1012.8 0.0
15/02:30am 14.6 12.7 9.2 70 2.8 W 9 13 5 7 1013.7 1012.9 0.0
15/02:00am 15.0 14.0 10.4 74 2.4 SW 6 7 3 4 1013.9 1013.1 0.0
15/01:30am 15.3 13.3 10.3 72 2.6 W 11 13 6 7 1013.7 1012.9 0.0
15/01:00am 16.0 14.5 10.5 70 2.9 WSW 9 13 5 7 1013.8 1013.0 0.0
15/12:30am 16.1 15.2 10.6 70 2.9 S 6 9 3 5 1013.8 1013.0 0.0
15/12:00am 16.9 15.3 11.6 71 2.9 WNW 11 13 6 7 1013.5 1012.7 0.0
 
Date/Time
EDT
Temp
°C
App
Temp
°C
Dew
Point
°C
Rel
Hum
%
Delta-T
°C
Wind Press
QNH
hPa
Press
MSL
hPa
Rain since
9am
mm
Dir  Spd
km/h
Gust
km/h
Spd
kts
Gust
kts
14/11:30pm 17.0 15.5 10.6 66 3.4 WSW 9 9 5 5 1013.2 1012.4 0.0
14/11:00pm 17.5 17.5 11.1 66 3.5 ENE 2 6 1 3 1013.0 1012.2 0.0
14/10:30pm 18.5 18.5 9.8 57 4.6 CALM 0 4 0 2 1012.8 1012.0 0.0
14/10:00pm 18.8 17.3 9.3 54 5.0 WSW 7 9 4 5 1012.6 1011.8 0.0
14/09:30pm 19.8 17.9 9.1 50 5.7 SW 9 13 5 7 1012.2 1011.4 0.0
14/09:00pm 20.5 17.8 9.1 48 6.1 SSW 13 17 7 9 1011.9 1011.1 0.0
14/08:30pm 21.6 18.9 8.8 44 6.8 SW 13 20 7 11 1011.8 1011.0 0.0
14/08:00pm 22.7 19.6 8.8 41 7.5 SW 15 22 8 12 1011.2 1010.4 0.0
14/07:30pm 23.5 19.4 8.8 39 7.9 WSW 20 26 11 14 1010.9 1010.1 0.0
14/07:00pm 24.2 20.2 9.0 38 8.3 SW 20 28 11 15 1010.6 1009.8 0.0
14/06:30pm 24.6 20.1 8.5 36 8.7 SW 22 37 12 20 1010.4 1009.6 0.0
14/06:00pm 25.1 20.7 9.0 36 8.8 WSW 22 32 12 17 1010.3 1009.5 0.0
14/05:30pm 24.4 20.3 8.8 37 8.5 SW 20 30 11 16 1010.5 1009.7 0.0
14/05:00pm 23.9 19.3 8.3 37 8.4 SW 22 32 12 17 1010.4 1009.6 0.0
14/04:30pm 24.5 20.6 8.5 36 8.6 WSW 19 26 10 14 1010.5 1009.7 0.0
14/04:00pm 24.2 18.8 8.2 36 8.6 WSW 26 37 14 20 1010.5 1009.7 0.0
14/03:30pm 24.2 19.0 9.0 38 8.3 SW 26 35 14 19 1010.4 1009.6 0.0
14/03:00pm 23.8 18.4 8.2 37 8.4 SW 26 35 14 19 1010.1 1009.3 0.0
14/02:30pm 23.7 19.1 8.2 37 8.3 WSW 22 33 12 18 1010.0 1009.2 0.0
14/02:00pm 23.3 18.5 7.4 36 8.4 W 22 39 12 21 1009.9 1009.1 0.0
14/01:30pm 23.2 18.2 8.1 38 8.0 W 24 37 13 20 1009.9 1009.1 0.0
14/01:00pm 22.8 17.8 8.1 39 7.8 W 24 35 13 19 1009.8 1009.0 0.0
14/12:30pm 22.1 17.2 8.6 42 7.2 WSW 24 37 13 20 1010.0 1009.2 0.0
14/12:00pm 22.0 17.7 9.2 44 6.9 WSW 22 37 12 20 1009.7 1008.8 0.0
14/11:30am 21.2 17.1 8.8 45 6.6 SW 20 30 11 16 1009.6 1008.7 0.0
14/11:00am 20.5 16.5 9.1 48 6.1 W 20 30 11 16 1009.1 1008.3 0.0
14/10:30am 19.4 15.2 8.4 49 5.8 W 20 32 11 17 1008.9 1008.1 0.0
14/10:00am 19.8 15.7 10.0 53 5.3 W 22 32 12 17 1008.9 1008.1 0.0
14/09:30am 19.0 14.3 9.2 53 5.2 W 24 35 13 19 1009.0 1008.2 0.0
14/09:00am 18.9 15.6 11.5 62 4.1 W 20 28 11 15 1008.6 1007.8 14.2
14/08:30am 18.0 15.0 12.5 70 3.1 W 20 28 11 15 1008.4 1007.6 14.2
14/08:00am 17.9 15.3 13.8 77 2.4 WNW 20 28 11 15 1007.9 1007.1 14.2
14/07:30am 17.6 16.0 15.0 85 1.5 WNW 17 24 9 13 1007.3 1006.5 14.2
14/07:01am 17.1 15.6 15.3 89 1.1 WNW 17 20 9 11 1006.7 1005.9 14.2
14/07:00am 17.1 15.6 15.3 89 1.1 WNW 17 20 9 11 1006.7 1005.9 14.2
14/06:30am 17.3 15.5 15.5 89 1.1 NW 19 22 10 12 1006.1 1005.3 14.2

Other Formats:

Comma delimited format used in spreadsheet applications
http://www.bom.gov.au/fwo/IDV60801/IDV60801.95896.axf

JavaScript Object Notation format (JSON) in row-major order
http://www.bom.gov.au/fwo/IDV60801/IDV60801.95896.json